Terminal Aerodrome Forecast
Issued by NWS

Home | Current Version | Previous Version | Text Only | Print | Product List | Glossary On
Versions: 1 2 3 4 5 6 7 8 9 10 11 12 13 14 15 16 17 18 19 20 21
000
FTUS43 KDVN 261120
TAFCID
TAF
KCID 261120Z 2612/2712 35004KT P6SM SCT250
     FM261400 09005KT P6SM BKN070 BKN120
     FM270000 11006KT P6SM VCSH OVC040 PROB30 2702/2706 3SM TSRA
      OVC040CB
     FM270900 12005KT 4SM BR OVC025=

USA.gov is the U.S. government's official web portal to all federal, state and local government web resources and services.